Aviation Digital Data Service (ADDS)

Output produced by METARs form (2125 UTC 24 August 2016)
found at http://aviationweather.gov/adds/metars/
 
KBFD 241911Z 2419/2518 18012KT P6SM SKC 
     FM250000 17003KT P6SM BKN080 
     FM250400 16003KT P6SM BKN040 
     FM251000 19006KT 5SM BR OVC025